createdAt,value
2019-01-23T00:01:31.505Z,3.30
2019-01-23T00:06:36.060Z,3.30
2019-01-23T00:11:40.645Z,3.20
2019-01-23T00:16:45.227Z,3.20
2019-01-23T00:21:49.838Z,3.20
2019-01-23T00:26:54.435Z,3.20
2019-01-23T00:31:59.929Z,3.20
2019-01-23T00:37:04.661Z,3.20
2019-01-23T00:42:09.274Z,3.10
2019-01-23T00:47:13.794Z,3.10
2019-01-23T00:52:18.314Z,3.10
2019-01-23T00:57:22.927Z,3.10
2019-01-23T01:02:27.526Z,3.00
2019-01-23T01:07:32.158Z,3.10
2019-01-23T01:12:36.767Z,3.10
2019-01-23T01:17:41.354Z,3.10
2019-01-23T01:22:45.928Z,3.10
2019-01-23T01:27:50.469Z,3.10
2019-01-23T01:32:55.053Z,3.00
2019-01-23T01:37:59.625Z,3.00
2019-01-23T01:43:04.205Z,3.00
2019-01-23T01:48:08.819Z,3.00
2019-01-23T01:53:13.398Z,2.90
2019-01-23T01:58:17.958Z,3.00
2019-01-23T02:03:22.566Z,3.00
2019-01-23T02:08:27.137Z,2.90
2019-01-23T02:13:31.676Z,2.90
2019-01-23T02:18:36.185Z,2.90
2019-01-23T02:23:40.754Z,2.90
2019-01-23T02:28:45.264Z,2.90
2019-01-23T02:33:49.870Z,2.90
2019-01-23T02:38:54.376Z,2.90
2019-01-23T02:43:58.993Z,2.90
2019-01-23T02:49:03.586Z,2.90
2019-01-23T02:54:08.177Z,2.80
2019-01-23T02:59:17.315Z,2.80
2019-01-23T03:04:18.935Z,2.80
2019-01-23T03:09:23.491Z,2.80
2019-01-23T03:14:28.110Z,2.80
2019-01-23T03:19:32.807Z,2.80
2019-01-23T03:24:37.365Z,2.70
2019-01-23T03:29:41.954Z,2.70
2019-01-23T03:34:46.582Z,2.70
2019-01-23T03:39:51.294Z,2.70
2019-01-23T03:44:55.911Z,2.70
2019-01-23T03:50:00.487Z,2.60
2019-01-23T03:55:06.183Z,2.50
2019-01-23T04:00:13.588Z,2.60
2019-01-23T04:05:18.182Z,2.60
2019-01-23T04:10:22.736Z,2.60
2019-01-23T04:15:27.305Z,2.50
2019-01-23T04:20:31.866Z,2.50
2019-01-23T04:25:36.447Z,2.50
2019-01-23T04:30:41.061Z,2.50
2019-01-23T04:35:45.619Z,2.50
2019-01-23T04:40:50.140Z,2.40
2019-01-23T04:45:54.706Z,2.40
2019-01-23T04:51:21.046Z,2.40
2019-01-23T04:56:25.624Z,2.40
2019-01-23T05:01:30.292Z,2.40
2019-01-23T05:06:34.803Z,2.40
2019-01-23T05:11:39.392Z,2.40
2019-01-23T05:16:43.899Z,2.50
2019-01-23T05:21:48.477Z,2.50
2019-01-23T05:26:53.060Z,2.50
2019-01-23T05:31:57.702Z,2.60
2019-01-23T05:37:02.298Z,2.50
2019-01-23T05:42:06.880Z,2.50
2019-01-23T05:47:12.706Z,2.50
2019-01-23T05:52:17.318Z,2.50
2019-01-23T05:57:21.888Z,2.50
2019-01-23T06:02:26.414Z,2.50
2019-01-23T06:07:31.027Z,2.50
2019-01-23T06:12:35.599Z,2.60
2019-01-23T06:17:40.455Z,2.60
2019-01-23T06:22:45.013Z,2.70
2019-01-23T06:27:49.510Z,2.70
2019-01-23T06:32:55.247Z,2.60
2019-01-23T06:37:59.862Z,2.60
2019-01-23T06:43:04.404Z,2.60
2019-01-23T06:48:08.999Z,2.60
2019-01-23T06:53:14.090Z,2.70
2019-01-23T06:58:18.878Z,2.60
2019-01-23T07:03:23.479Z,2.60
2019-01-23T07:08:28.046Z,2.60
2019-01-23T07:13:32.663Z,2.60
2019-01-23T07:18:37.231Z,2.60
2019-01-23T07:23:41.845Z,2.60
2019-01-23T07:28:49.283Z,2.60
2019-01-23T07:33:52.648Z,2.60
2019-01-23T07:38:57.374Z,2.70
2019-01-23T07:44:01.955Z,2.70
2019-01-23T07:49:06.572Z,2.70
2019-01-23T07:54:11.168Z,2.90
2019-01-23T07:59:15.768Z,2.90
2019-01-23T08:04:20.357Z,2.90
2019-01-23T08:09:24.952Z,3.00
2019-01-23T08:14:29.552Z,2.80
2019-01-23T08:19:34.188Z,2.80
2019-01-23T08:24:38.870Z,2.90
2019-01-23T08:29:43.478Z,2.90
2019-01-23T08:34:48.127Z,2.80
2019-01-23T08:39:52.726Z,2.90
2019-01-23T08:44:57.305Z,3.00
2019-01-23T08:50:01.960Z,2.90
2019-01-23T08:55:06.701Z,2.80
2019-01-23T09:00:11.339Z,2.80
2019-01-23T09:05:16.052Z,2.80
2019-01-23T09:10:21.818Z,2.80
2019-01-23T09:15:26.389Z,2.80
2019-01-23T09:20:30.943Z,2.90
2019-01-23T09:25:35.536Z,2.80
2019-01-23T09:31:24.043Z,2.70
2019-01-23T09:36:57.752Z,2.70
2019-01-23T09:42:27.785Z,2.80
2019-01-23T09:48:00.614Z,2.90
2019-01-23T09:53:38.607Z,2.90
2019-01-23T09:58:43.215Z,2.90
2019-01-23T10:03:47.808Z,2.90
2019-01-23T10:08:52.525Z,2.90
2019-01-23T10:13:57.094Z,3.00
2019-01-23T10:19:01.688Z,3.00
2019-01-23T10:24:06.259Z,3.10
2019-01-23T10:29:10.781Z,3.10
2019-01-23T10:34:15.385Z,3.10
2019-01-23T10:39:19.980Z,3.20
2019-01-23T10:44:24.613Z,3.20
2019-01-23T10:49:29.214Z,3.10
2019-01-23T10:54:33.790Z,3.00
2019-01-23T10:59:38.395Z,3.00
2019-01-23T11:04:42.980Z,3.00
2019-01-23T11:09:47.583Z,3.00
2019-01-23T11:14:52.215Z,2.90
2019-01-23T11:19:56.790Z,2.90
2019-01-23T11:25:01.376Z,2.90
2019-01-23T11:30:08.661Z,3.00
2019-01-23T11:35:13.464Z,2.90
2019-01-23T11:40:23.703Z,3.00
2019-01-23T11:45:28.518Z,2.90
2019-01-23T11:50:33.136Z,2.90
2019-01-23T11:55:37.760Z,2.90
2019-01-23T12:00:42.580Z,3.00
2019-01-23T12:05:47.206Z,3.00
2019-01-23T12:10:51.802Z,3.00
2019-01-23T12:15:56.431Z,3.00
2019-01-23T12:21:01.113Z,3.00
2019-01-23T12:26:05.906Z,3.10
2019-01-23T12:31:10.512Z,3.10
2019-01-23T12:36:15.179Z,3.10
2019-01-23T12:41:19.828Z,3.20
2019-01-23T12:46:24.461Z,3.20
2019-01-23T12:51:29.047Z,3.10
2019-01-23T12:56:34.447Z,3.10
2019-01-23T13:01:42.095Z,3.10
2019-01-23T13:06:45.390Z,3.10
2019-01-23T13:11:49.990Z,3.10
2019-01-23T13:16:54.610Z,3.10
2019-01-23T13:21:59.195Z,3.10
2019-01-23T13:27:03.918Z,3.10
2019-01-23T13:32:08.561Z,3.10
2019-01-23T13:37:13.195Z,3.10
2019-01-23T13:42:17.809Z,3.10
2019-01-23T13:47:22.368Z,3.20
2019-01-23T13:52:27.045Z,3.20
2019-01-23T13:57:31.686Z,3.10
2019-01-23T14:02:36.197Z,3.10
2019-01-23T14:07:40.849Z,3.00
2019-01-23T14:12:45.474Z,3.10
2019-01-23T14:17:50.093Z,3.10
2019-01-23T14:22:54.720Z,3.20
2019-01-23T14:27:59.300Z,3.20
2019-01-23T14:33:04.122Z,3.10
2019-01-23T14:38:08.747Z,3.10
2019-01-23T14:43:13.395Z,3.20
2019-01-23T14:48:17.969Z,3.20
2019-01-23T14:53:22.594Z,3.20
2019-01-23T14:58:27.233Z,3.20
2019-01-23T15:03:31.757Z,3.20
2019-01-23T15:08:36.377Z,3.10
2019-01-23T15:13:40.965Z,3.10
2019-01-23T15:18:45.585Z,3.10
2019-01-23T15:23:50.160Z,3.20
2019-01-23T15:28:54.760Z,3.20
2019-01-23T15:33:59.387Z,3.20
2019-01-23T15:39:05.371Z,3.30
2019-01-23T15:44:09.986Z,3.30
2019-01-23T15:49:14.582Z,3.30
2019-01-23T15:54:19.151Z,3.20
2019-01-23T15:59:23.750Z,3.30
2019-01-23T16:04:28.282Z,3.30
2019-01-23T16:09:32.896Z,3.30
2019-01-23T16:14:38.128Z,3.30
2019-01-23T16:19:42.727Z,3.50
2019-01-23T16:24:47.369Z,3.40
2019-01-23T16:29:52.007Z,3.40
2019-01-23T16:34:56.623Z,3.30
2019-01-23T16:40:01.265Z,3.30
2019-01-23T16:45:07.334Z,3.40
2019-01-23T16:50:17.348Z,3.40
2019-01-23T16:55:21.950Z,3.40
2019-01-23T17:00:27.109Z,3.50
2019-01-23T17:05:32.799Z,3.40
2019-01-23T17:10:37.524Z,3.40
2019-01-23T17:15:42.173Z,3.30
2019-01-23T17:20:48.994Z,3.30
2019-01-23T17:25:53.634Z,3.30
2019-01-23T17:30:58.153Z,3.30
2019-01-23T17:36:02.793Z,3.20
2019-01-23T17:41:07.503Z,3.10
2019-01-23T17:46:12.053Z,3.00
2019-01-23T17:51:16.647Z,3.00
2019-01-23T17:56:21.266Z,2.90
2019-01-23T18:01:25.883Z,2.90
2019-01-23T18:06:30.534Z,2.90
2019-01-23T18:11:35.122Z,2.90
2019-01-23T18:16:39.808Z,2.80
2019-01-23T18:21:44.585Z,2.80
2019-01-23T18:26:49.314Z,2.90
2019-01-23T18:32:03.298Z,2.90
2019-01-23T18:37:39.751Z,2.80
2019-01-23T18:43:40.190Z,2.80
2019-01-23T18:49:20.735Z,2.80
2019-01-23T18:54:25.357Z,2.80
2019-01-23T18:59:29.993Z,2.70
2019-01-23T19:04:34.687Z,2.70
2019-01-23T19:09:39.358Z,2.70
2019-01-23T19:14:44.115Z,2.60
2019-01-23T19:19:48.733Z,2.60
2019-01-23T19:24:53.795Z,2.50
2019-01-23T19:29:58.419Z,2.60
2019-01-23T19:35:03.011Z,2.50
2019-01-23T19:40:08.543Z,2.50
2019-01-23T19:45:16.638Z,2.40
2019-01-23T19:50:21.244Z,2.40
2019-01-23T19:55:25.959Z,2.40
2019-01-23T20:00:30.666Z,2.50
2019-01-23T20:05:35.325Z,2.40
2019-01-23T20:10:40.052Z,2.50
2019-01-23T20:15:44.691Z,2.60
2019-01-23T20:20:49.312Z,2.70
2019-01-23T20:25:53.931Z,2.60
2019-01-23T20:30:58.566Z,2.50
2019-01-23T20:36:03.200Z,2.60
2019-01-23T20:41:07.952Z,2.50
2019-01-23T20:46:12.656Z,2.40
2019-01-23T20:51:17.315Z,2.30
2019-01-23T20:56:21.979Z,2.20
2019-01-23T21:01:26.587Z,2.20
2019-01-23T21:06:31.230Z,2.10
2019-01-23T21:11:35.891Z,2.00
2019-01-23T21:16:40.481Z,1.90
2019-01-23T21:21:45.028Z,1.90
2019-01-23T21:26:49.660Z,1.90
2019-01-23T21:31:54.306Z,1.90
2019-01-23T21:36:59.065Z,1.90
2019-01-23T21:42:03.765Z,1.90
2019-01-23T21:47:08.402Z,1.90
2019-01-23T21:52:13.008Z,1.80
2019-01-23T21:57:17.661Z,1.80
2019-01-23T22:02:22.287Z,1.80
2019-01-23T22:07:27.126Z,1.80
2019-01-23T22:12:31.968Z,1.90
2019-01-23T22:17:36.593Z,1.80
2019-01-23T22:22:41.305Z,1.70
2019-01-23T22:27:45.892Z,1.70
2019-01-23T22:32:50.724Z,1.70
2019-01-23T22:37:55.266Z,1.60
2019-01-23T22:43:00.003Z,1.70
2019-01-23T22:48:05.251Z,1.70
2019-01-23T22:53:09.935Z,1.60
2019-01-23T22:58:14.578Z,1.60
2019-01-23T23:03:20.898Z,1.60
2019-01-23T23:08:25.532Z,1.60
2019-01-23T23:13:30.100Z,1.60
2019-01-23T23:18:34.687Z,1.50
2019-01-23T23:23:42.298Z,1.50
2019-01-23T23:28:47.134Z,1.50
2019-01-23T23:33:51.841Z,1.50
2019-01-23T23:38:56.492Z,1.40
2019-01-23T23:44:01.041Z,1.30
2019-01-23T23:49:05.643Z,1.20
2019-01-23T23:54:10.187Z,1.30
2019-01-23T23:59:14.715Z,1.30
